sensor_id;sensor_type;location;lat;lon;timestamp;temperature;humidity
52743;DHT22;55583;53.012;6.556;2022-08-23T00:01:25;16.80;99.90
52743;DHT22;55583;53.012;6.556;2022-08-23T00:03:53;16.80;99.90
52743;DHT22;55583;53.012;6.556;2022-08-23T00:06:19;16.80;99.90
52743;DHT22;55583;53.012;6.556;2022-08-23T00:08:47;16.70;99.90
52743;DHT22;55583;53.012;6.556;2022-08-23T00:13:49;16.50;99.90
52743;DHT22;55583;53.012;6.556;2022-08-23T00:16:15;16.60;99.90
52743;DHT22;55583;53.012;6.556;2022-08-23T00:18:40;16.50;99.90
52743;DHT22;55583;53.012;6.556;2022-08-23T00:21:06;16.50;99.90
52743;DHT22;55583;53.012;6.556;2022-08-23T00:23:32;16.40;99.90
52743;DHT22;55583;53.012;6.556;2022-08-23T00:26:00;16.40;99.90
52743;DHT22;55583;53.012;6.556;2022-08-23T00:28:27;16.40;99.90
52743;DHT22;55583;53.012;6.556;2022-08-23T00:30:54;16.40;99.90
52743;DHT22;55583;53.012;6.556;2022-08-23T00:33:19;16.40;99.90
52743;DHT22;55583;53.012;6.556;2022-08-23T00:35:46;16.30;99.90
52743;DHT22;55583;53.012;6.556;2022-08-23T00:38:11;16.30;99.90
52743;DHT22;55583;53.012;6.556;2022-08-23T00:40:37;16.30;99.90
52743;DHT22;55583;53.012;6.556;2022-08-23T00:43:06;16.30;99.90
52743;DHT22;55583;53.012;6.556;2022-08-23T00:48:46;16.20;99.90
52743;DHT22;55583;53.012;6.556;2022-08-23T00:51:19;16.10;99.90
52743;DHT22;55583;53.012;6.556;2022-08-23T00:53:50;16.00;99.90
52743;DHT22;55583;53.012;6.556;2022-08-23T00:56:19;16.00;99.90
52743;DHT22;55583;53.012;6.556;2022-08-23T00:58:45;16.00;99.90
52743;DHT22;55583;53.012;6.556;2022-08-23T01:01:12;16.00;99.90
52743;DHT22;55583;53.012;6.556;2022-08-23T01:03:42;16.00;99.90
52743;DHT22;55583;53.012;6.556;2022-08-23T01:06:40;15.90;99.90
52743;DHT22;55583;53.012;6.556;2022-08-23T01:09:13;15.90;99.90
52743;DHT22;55583;53.012;6.556;2022-08-23T01:11:40;15.90;99.90
52743;DHT22;55583;53.012;6.556;2022-08-23T01:16:59;15.80;99.90
52743;DHT22;55583;53.012;6.556;2022-08-23T01:19:32;15.90;99.90
52743;DHT22;55583;53.012;6.556;2022-08-23T01:22:08;15.80;99.90
52743;DHT22;55583;53.012;6.556;2022-08-23T01:24:36;15.70;99.90
52743;DHT22;55583;53.012;6.556;2022-08-23T01:27:03;15.70;99.90
52743;DHT22;55583;53.012;6.556;2022-08-23T01:29:28;15.70;99.90
52743;DHT22;55583;53.012;6.556;2022-08-23T01:31:54;15.60;99.90
52743;DHT22;55583;53.012;6.556;2022-08-23T01:34:25;15.60;99.90
52743;DHT22;55583;53.012;6.556;2022-08-23T01:36:51;15.70;99.90
52743;DHT22;55583;53.012;6.556;2022-08-23T01:39:17;15.50;99.90
52743;DHT22;55583;53.012;6.556;2022-08-23T01:41:43;15.50;99.90
52743;DHT22;55583;53.012;6.556;2022-08-23T01:44:09;15.50;99.90
52743;DHT22;55583;53.012;6.556;2022-08-23T01:46:35;15.50;99.90
52743;DHT22;55583;53.012;6.556;2022-08-23T01:49:04;15.40;99.90
52743;DHT22;55583;53.012;6.556;2022-08-23T01:51:30;15.40;99.90
52743;DHT22;55583;53.012;6.556;2022-08-23T01:53:56;15.50;99.90
52743;DHT22;55583;53.012;6.556;2022-08-23T01:56:23;15.40;99.90
52743;DHT22;55583;53.012;6.556;2022-08-23T01:58:49;15.40;99.90
52743;DHT22;55583;53.012;6.556;2022-08-23T02:01:16;15.40;99.90
52743;DHT22;55583;53.012;6.556;2022-08-23T02:03:41;15.40;99.90
52743;DHT22;55583;53.012;6.556;2022-08-23T02:06:07;15.30;99.90
52743;DHT22;55583;53.012;6.556;2022-08-23T02:08:33;15.30;99.90
52743;DHT22;55583;53.012;6.556;2022-08-23T02:11:20;15.30;99.90
52743;DHT22;55583;53.012;6.556;2022-08-23T02:13:48;15.30;99.90
52743;DHT22;55583;53.012;6.556;2022-08-23T02:16:22;15.20;99.90
52743;DHT22;55583;53.012;6.556;2022-08-23T02:18:48;15.20;99.90
52743;DHT22;55583;53.012;6.556;2022-08-23T02:21:14;15.30;99.90
52743;DHT22;55583;53.012;6.556;2022-08-23T02:23:40;15.20;99.90
52743;DHT22;55583;53.012;6.556;2022-08-23T02:26:06;15.20;99.90
52743;DHT22;55583;53.012;6.556;2022-08-23T02:28:31;15.10;99.90
52743;DHT22;55583;53.012;6.556;2022-08-23T02:30:57;15.20;99.90
52743;DHT22;55583;53.012;6.556;2022-08-23T02:33:23;15.10;99.90
52743;DHT22;55583;53.012;6.556;2022-08-23T02:35:48;15.10;99.90
52743;DHT22;55583;53.012;6.556;2022-08-23T02:38:14;15.10;99.90
52743;DHT22;55583;53.012;6.556;2022-08-23T02:40:40;15.10;99.90
52743;DHT22;55583;53.012;6.556;2022-08-23T02:43:07;15.00;99.90
52743;DHT22;55583;53.012;6.556;2022-08-23T02:45:33;15.10;99.90
52743;DHT22;55583;53.012;6.556;2022-08-23T02:47:59;15.00;99.90
52743;DHT22;55583;53.012;6.556;2022-08-23T02:50:26;15.00;99.90
52743;DHT22;55583;53.012;6.556;2022-08-23T02:52:53;15.00;99.90
52743;DHT22;55583;53.012;6.556;2022-08-23T02:55:19;15.00;99.90
52743;DHT22;55583;53.012;6.556;2022-08-23T02:57:45;15.00;99.90
52743;DHT22;55583;53.012;6.556;2022-08-23T03:00:12;15.00;99.90
52743;DHT22;55583;53.012;6.556;2022-08-23T03:02:38;14.90;99.90
52743;DHT22;55583;53.012;6.556;2022-08-23T03:05:05;14.90;99.90
52743;DHT22;55583;53.012;6.556;2022-08-23T03:07:30;14.90;99.90
52743;DHT22;55583;53.012;6.556;2022-08-23T03:09:56;14.90;99.90
52743;DHT22;55583;53.012;6.556;2022-08-23T03:12:22;14.90;99.90
52743;DHT22;55583;53.012;6.556;2022-08-23T03:14:48;14.80;99.90
52743;DHT22;55583;53.012;6.556;2022-08-23T03:17:16;14.80;99.90
52743;DHT22;55583;53.012;6.556;2022-08-23T03:19:42;14.80;99.90
52743;DHT22;55583;53.012;6.556;2022-08-23T03:22:08;14.80;99.90
52743;DHT22;55583;53.012;6.556;2022-08-23T03:24:34;14.80;99.90
52743;DHT22;55583;53.012;6.556;2022-08-23T03:27:01;14.80;99.90
52743;DHT22;55583;53.012;6.556;2022-08-23T03:29:27;14.70;99.90
52743;DHT22;55583;53.012;6.556;2022-08-23T03:31:55;14.70;99.90
52743;DHT22;55583;53.012;6.556;2022-08-23T03:34:21;14.70;99.90
52743;DHT22;55583;53.012;6.556;2022-08-23T03:36:47;14.70;99.90
52743;DHT22;55583;53.012;6.556;2022-08-23T03:39:12;14.70;99.90
52743;DHT22;55583;53.012;6.556;2022-08-23T03:41:38;14.50;99.90
52743;DHT22;55583;53.012;6.556;2022-08-23T03:44:04;14.60;99.90
52743;DHT22;55583;53.012;6.556;2022-08-23T03:46:29;14.50;99.90
52743;DHT22;55583;53.012;6.556;2022-08-23T03:48:58;14.50;99.90
52743;DHT22;55583;53.012;6.556;2022-08-23T03:51:26;14.50;99.90
52743;DHT22;55583;53.012;6.556;2022-08-23T03:53:52;14.50;99.90
52743;DHT22;55583;53.012;6.556;2022-08-23T03:56:31;14.50;99.90
52743;DHT22;55583;53.012;6.556;2022-08-23T03:59:00;14.50;99.90
52743;DHT22;55583;53.012;6.556;2022-08-23T04:01:26;14.50;99.90
52743;DHT22;55583;53.012;6.556;2022-08-23T04:03:51;14.70;99.90
52743;DHT22;55583;53.012;6.556;2022-08-23T04:06:18;14.90;99.90
52743;DHT22;55583;53.012;6.556;2022-08-23T04:08:44;14.40;99.90
52743;DHT22;55583;53.012;6.556;2022-08-23T04:11:11;14.40;99.90
52743;DHT22;55583;53.012;6.556;2022-08-23T04:13:38;14.50;99.90
52743;DHT22;55583;53.012;6.556;2022-08-23T04:16:05;14.50;99.90
52743;DHT22;55583;53.012;6.556;2022-08-23T04:18:34;14.40;99.90
52743;DHT22;55583;53.012;6.556;2022-08-23T04:21:04;14.50;99.90
52743;DHT22;55583;53.012;6.556;2022-08-23T04:23:30;14.40;99.90
52743;DHT22;55583;53.012;6.556;2022-08-23T04:25:56;14.40;99.90
52743;DHT22;55583;53.012;6.556;2022-08-23T04:28:22;14.40;99.90
52743;DHT22;55583;53.012;6.556;2022-08-23T04:30:49;14.50;99.90
52743;DHT22;55583;53.012;6.556;2022-08-23T04:33:15;14.50;99.90
52743;DHT22;55583;53.012;6.556;2022-08-23T04:35:41;14.50;99.90
52743;DHT22;55583;53.012;6.556;2022-08-23T04:38:07;14.50;99.90
52743;DHT22;55583;53.012;6.556;2022-08-23T04:40:33;14.60;99.90
52743;DHT22;55583;53.012;6.556;2022-08-23T04:43:17;14.60;99.90
52743;DHT22;55583;53.012;6.556;2022-08-23T04:45:42;14.60;99.90
52743;DHT22;55583;53.012;6.556;2022-08-23T04:48:08;14.60;99.90
52743;DHT22;55583;53.012;6.556;2022-08-23T04:50:35;14.60;99.90
52743;DHT22;55583;53.012;6.556;2022-08-23T04:53:01;14.60;99.90
52743;DHT22;55583;53.012;6.556;2022-08-23T04:55:27;14.60;99.90
52743;DHT22;55583;53.012;6.556;2022-08-23T04:57:53;14.70;99.90
52743;DHT22;55583;53.012;6.556;2022-08-23T05:00:19;14.70;99.90
52743;DHT22;55583;53.012;6.556;2022-08-23T05:02:45;14.70;99.90
52743;DHT22;55583;53.012;6.556;2022-08-23T05:05:11;14.70;99.90
52743;DHT22;55583;53.012;6.556;2022-08-23T05:07:38;14.70;99.90
52743;DHT22;55583;53.012;6.556;2022-08-23T05:10:09;14.70;99.90
52743;DHT22;55583;53.012;6.556;2022-08-23T05:12:34;14.70;99.90
52743;DHT22;55583;53.012;6.556;2022-08-23T05:15:00;14.80;99.90
52743;DHT22;55583;53.012;6.556;2022-08-23T05:17:26;14.80;99.90
52743;DHT22;55583;53.012;6.556;2022-08-23T05:19:52;14.80;99.90
52743;DHT22;55583;53.012;6.556;2022-08-23T05:22:18;14.80;99.90
52743;DHT22;55583;53.012;6.556;2022-08-23T05:24:43;14.90;99.90
52743;DHT22;55583;53.012;6.556;2022-08-23T05:27:09;14.90;99.90
52743;DHT22;55583;53.012;6.556;2022-08-23T05:29:35;14.90;99.90
52743;DHT22;55583;53.012;6.556;2022-08-23T05:32:01;14.90;99.90
52743;DHT22;55583;53.012;6.556;2022-08-23T05:34:27;14.90;99.90
52743;DHT22;55583;53.012;6.556;2022-08-23T05:36:53;15.00;99.90
52743;DHT22;55583;53.012;6.556;2022-08-23T05:39:19;15.00;99.90
52743;DHT22;55583;53.012;6.556;2022-08-23T05:41:44;15.00;99.90
52743;DHT22;55583;53.012;6.556;2022-08-23T05:44:11;15.10;99.90
52743;DHT22;55583;53.012;6.556;2022-08-23T05:46:37;15.10;99.90
52743;DHT22;55583;53.012;6.556;2022-08-23T05:49:03;15.10;99.90
52743;DHT22;55583;53.012;6.556;2022-08-23T05:51:32;15.20;99.90
52743;DHT22;55583;53.012;6.556;2022-08-23T05:54:02;15.20;99.90
52743;DHT22;55583;53.012;6.556;2022-08-23T05:56:37;15.30;99.90
52743;DHT22;55583;53.012;6.556;2022-08-23T05:59:05;15.60;99.90
52743;DHT22;55583;53.012;6.556;2022-08-23T06:01:34;16.00;99.90
52743;DHT22;55583;53.012;6.556;2022-08-23T06:04:01;16.60;99.90
52743;DHT22;55583;53.012;6.556;2022-08-23T06:06:28;17.10;99.90
52743;DHT22;55583;53.012;6.556;2022-08-23T06:08:53;17.70;99.90
52743;DHT22;55583;53.012;6.556;2022-08-23T06:11:24;18.20;99.90
52743;DHT22;55583;53.012;6.556;2022-08-23T06:13:53;18.80;99.90
52743;DHT22;55583;53.012;6.556;2022-08-23T06:16:25;19.40;99.90
52743;DHT22;55583;53.012;6.556;2022-08-23T06:18:53;19.80;99.90
52743;DHT22;55583;53.012;6.556;2022-08-23T06:21:19;20.30;99.90
52743;DHT22;55583;53.012;6.556;2022-08-23T06:23:44;20.90;99.90
52743;DHT22;55583;53.012;6.556;2022-08-23T06:28:40;21.80;99.90
52743;DHT22;55583;53.012;6.556;2022-08-23T06:31:07;22.30;99.90
52743;DHT22;55583;53.012;6.556;2022-08-23T06:33:34;22.80;99.90
52743;DHT22;55583;53.012;6.556;2022-08-23T06:36:05;23.10;99.90
52743;DHT22;55583;53.012;6.556;2022-08-23T06:38:32;23.50;99.90
52743;DHT22;55583;53.012;6.556;2022-08-23T06:41:07;23.80;99.90
52743;DHT22;55583;53.012;6.556;2022-08-23T06:43:33;24.20;99.90
52743;DHT22;55583;53.012;6.556;2022-08-23T06:46:14;24.00;99.90
52743;DHT22;55583;53.012;6.556;2022-08-23T06:48:42;23.20;99.90
52743;DHT22;55583;53.012;6.556;2022-08-23T06:51:40;22.50;99.90
52743;DHT22;55583;53.012;6.556;2022-08-23T06:54:09;21.80;99.90
52743;DHT22;55583;53.012;6.556;2022-08-23T06:56:36;21.30;99.90
52743;DHT22;55583;53.012;6.556;2022-08-23T06:59:03;20.90;99.90
52743;DHT22;55583;53.012;6.556;2022-08-23T07:04:04;20.20;99.90
52743;DHT22;55583;53.012;6.556;2022-08-23T07:06:30;20.00;99.90
52743;DHT22;55583;53.012;6.556;2022-08-23T07:08:57;19.80;99.90
52743;DHT22;55583;53.012;6.556;2022-08-23T07:11:26;19.70;99.90
52743;DHT22;55583;53.012;6.556;2022-08-23T07:13:56;19.50;99.90
52743;DHT22;55583;53.012;6.556;2022-08-23T07:16:22;19.40;99.90
52743;DHT22;55583;53.012;6.556;2022-08-23T07:18:48;19.40;99.90
52743;DHT22;55583;53.012;6.556;2022-08-23T07:21:17;19.30;99.90
52743;DHT22;55583;53.012;6.556;2022-08-23T07:23:44;19.40;99.90
52743;DHT22;55583;53.012;6.556;2022-08-23T07:26:12;19.30;99.90
52743;DHT22;55583;53.012;6.556;2022-08-23T07:28:38;19.30;99.90
52743;DHT22;55583;53.012;6.556;2022-08-23T07:31:12;19.50;99.90
52743;DHT22;55583;53.012;6.556;2022-08-23T07:33:38;19.50;99.90
52743;DHT22;55583;53.012;6.556;2022-08-23T07:36:05;19.70;99.90
52743;DHT22;55583;53.012;6.556;2022-08-23T07:38:32;19.80;99.90
52743;DHT22;55583;53.012;6.556;2022-08-23T07:40:58;20.30;99.90
52743;DHT22;55583;53.012;6.556;2022-08-23T07:43:23;20.80;99.90
52743;DHT22;55583;53.012;6.556;2022-08-23T07:45:49;21.00;99.90
52743;DHT22;55583;53.012;6.556;2022-08-23T07:48:15;21.20;99.90
52743;DHT22;55583;53.012;6.556;2022-08-23T07:50:40;21.40;99.90
52743;DHT22;55583;53.012;6.556;2022-08-23T07:53:07;21.50;99.90
52743;DHT22;55583;53.012;6.556;2022-08-23T07:55:33;21.60;99.90
52743;DHT22;55583;53.012;6.556;2022-08-23T07:57:59;21.70;99.90
52743;DHT22;55583;53.012;6.556;2022-08-23T08:00:25;21.70;99.90
52743;DHT22;55583;53.012;6.556;2022-08-23T08:02:51;21.80;99.90
52743;DHT22;55583;53.012;6.556;2022-08-23T08:05:17;21.90;99.90
52743;DHT22;55583;53.012;6.556;2022-08-23T08:07:43;22.00;99.90
52743;DHT22;55583;53.012;6.556;2022-08-23T08:10:09;22.20;99.90
52743;DHT22;55583;53.012;6.556;2022-08-23T08:12:35;22.20;99.90
52743;DHT22;55583;53.012;6.556;2022-08-23T08:15:04;22.50;99.90
52743;DHT22;55583;53.012;6.556;2022-08-23T08:17:30;22.60;99.90
52743;DHT22;55583;53.012;6.556;2022-08-23T08:19:55;22.70;99.90
52743;DHT22;55583;53.012;6.556;2022-08-23T08:22:21;22.50;99.90
52743;DHT22;55583;53.012;6.556;2022-08-23T08:24:47;22.60;99.90
52743;DHT22;55583;53.012;6.556;2022-08-23T08:27:12;22.60;99.90
52743;DHT22;55583;53.012;6.556;2022-08-23T08:29:38;22.60;99.90
52743;DHT22;55583;53.012;6.556;2022-08-23T08:32:05;22.60;99.90
52743;DHT22;55583;53.012;6.556;2022-08-23T08:34:34;22.60;99.90
52743;DHT22;55583;53.012;6.556;2022-08-23T08:37:00;22.60;99.90
52743;DHT22;55583;53.012;6.556;2022-08-23T08:39:31;22.70;99.90
52743;DHT22;55583;53.012;6.556;2022-08-23T08:44:39;22.70;99.90
52743;DHT22;55583;53.012;6.556;2022-08-23T08:47:12;22.80;99.90
52743;DHT22;55583;53.012;6.556;2022-08-23T08:50:09;22.90;99.90
52743;DHT22;55583;53.012;6.556;2022-08-23T08:52:36;23.20;99.90
52743;DHT22;55583;53.012;6.556;2022-08-23T08:55:11;23.40;99.90
52743;DHT22;55583;53.012;6.556;2022-08-23T08:57:41;23.70;98.00
52743;DHT22;55583;53.012;6.556;2022-08-23T09:00:20;23.90;97.40
52743;DHT22;55583;53.012;6.556;2022-08-23T09:02:46;24.10;93.10
52743;DHT22;55583;53.012;6.556;2022-08-23T09:05:16;24.20;90.90
52743;DHT22;55583;53.012;6.556;2022-08-23T09:10:46;24.50;82.70
52743;DHT22;55583;53.012;6.556;2022-08-23T09:16:15;24.50;83.30
52743;DHT22;55583;53.012;6.556;2022-08-23T09:18:45;24.70;82.40
52743;DHT22;55583;53.012;6.556;2022-08-23T09:21:11;24.90;80.00
52743;DHT22;55583;53.012;6.556;2022-08-23T09:23:44;25.20;80.90
52743;DHT22;55583;53.012;6.556;2022-08-23T09:26:23;25.60;77.20
52743;DHT22;55583;53.012;6.556;2022-08-23T09:28:57;26.10;75.20
52743;DHT22;55583;53.012;6.556;2022-08-23T09:34:01;27.00;74.00
52743;DHT22;55583;53.012;6.556;2022-08-23T09:36:31;27.30;70.80
52743;DHT22;55583;53.012;6.556;2022-08-23T09:39:05;27.70;69.90
52743;DHT22;55583;53.012;6.556;2022-08-23T09:41:40;28.00;68.70
52743;DHT22;55583;53.012;6.556;2022-08-23T09:44:10;28.40;68.30
52743;DHT22;55583;53.012;6.556;2022-08-23T09:46:39;29.30;67.20
52743;DHT22;55583;53.012;6.556;2022-08-23T09:49:30;30.60;64.80
52743;DHT22;55583;53.012;6.556;2022-08-23T09:51:59;31.90;62.20
52743;DHT22;55583;53.012;6.556;2022-08-23T09:54:32;32.30;60.10
52743;DHT22;55583;53.012;6.556;2022-08-23T09:57:04;32.40;59.30
52743;DHT22;55583;53.012;6.556;2022-08-23T10:01:58;32.10;58.10
52743;DHT22;55583;53.012;6.556;2022-08-23T10:04:46;32.90;57.80
52743;DHT22;55583;53.012;6.556;2022-08-23T10:09:51;36.00;51.20
52743;DHT22;55583;53.012;6.556;2022-08-23T10:12:17;36.80;50.80
52743;DHT22;55583;53.012;6.556;2022-08-23T10:14:42;37.60;50.10
52743;DHT22;55583;53.012;6.556;2022-08-23T10:17:29;38.40;48.40
52743;DHT22;55583;53.012;6.556;2022-08-23T10:25:25;40.00;45.20
52743;DHT22;55583;53.012;6.556;2022-08-23T10:28:23;40.30;44.20
52743;DHT22;55583;53.012;6.556;2022-08-23T10:31:36;40.30;43.40
52743;DHT22;55583;53.012;6.556;2022-08-23T10:37:11;40.90;44.00
52743;DHT22;55583;53.012;6.556;2022-08-23T10:39:50;41.30;43.60
52743;DHT22;55583;53.012;6.556;2022-08-23T10:45:28;41.70;42.30
52743;DHT22;55583;53.012;6.556;2022-08-23T10:48:06;42.10;42.20
52743;DHT22;55583;53.012;6.556;2022-08-23T10:50:51;42.50;41.80
52743;DHT22;55583;53.012;6.556;2022-08-23T10:53:19;42.50;42.00
52743;DHT22;55583;53.012;6.556;2022-08-23T10:55:57;42.20;41.80
52743;DHT22;55583;53.012;6.556;2022-08-23T10:58:44;41.90;41.00
52743;DHT22;55583;53.012;6.556;2022-08-23T11:01:15;41.90;42.20
52743;DHT22;55583;53.012;6.556;2022-08-23T11:03:46;42.00;42.20
52743;DHT22;55583;53.012;6.556;2022-08-23T11:06:28;42.50;41.80
52743;DHT22;55583;53.012;6.556;2022-08-23T11:09:08;43.00;40.00
52743;DHT22;55583;53.012;6.556;2022-08-23T11:11:43;43.20;40.90
52743;DHT22;55583;53.012;6.556;2022-08-23T11:14:39;43.20;39.30
52743;DHT22;55583;53.012;6.556;2022-08-23T11:17:11;43.50;40.30
52743;DHT22;55583;53.012;6.556;2022-08-23T11:19:56;44.10;40.20
52743;DHT22;55583;53.012;6.556;2022-08-23T11:22:24;44.80;38.80
52743;DHT22;55583;53.012;6.556;2022-08-23T11:25:00;45.10;38.90
52743;DHT22;55583;53.012;6.556;2022-08-23T11:29:55;45.50;38.80
52743;DHT22;55583;53.012;6.556;2022-08-23T11:32:26;45.70;38.60
52743;DHT22;55583;53.012;6.556;2022-08-23T11:35:00;45.60;37.60
52743;DHT22;55583;53.012;6.556;2022-08-23T11:37:52;45.20;36.60
52743;DHT22;55583;53.012;6.556;2022-08-23T11:40:38;44.80;36.40
52743;DHT22;55583;53.012;6.556;2022-08-23T11:43:12;44.60;37.10
52743;DHT22;55583;53.012;6.556;2022-08-23T11:45:45;44.40;36.30
52743;DHT22;55583;53.012;6.556;2022-08-23T12:01:38;44.80;37.00
52743;DHT22;55583;53.012;6.556;2022-08-23T12:04:11;44.80;36.00
52743;DHT22;55583;53.012;6.556;2022-08-23T12:06:53;44.70;36.50
52743;DHT22;55583;53.012;6.556;2022-08-23T12:23:04;44.40;36.30
52743;DHT22;55583;53.012;6.556;2022-08-23T12:25:32;44.00;37.00
52743;DHT22;55583;53.012;6.556;2022-08-23T12:28:09;43.80;37.70
52743;DHT22;55583;53.012;6.556;2022-08-23T12:39:23;43.50;37.10
52743;DHT22;55583;53.012;6.556;2022-08-23T12:41:56;43.10;38.20
52743;DHT22;55583;53.012;6.556;2022-08-23T12:44:26;43.00;37.00
52743;DHT22;55583;53.012;6.556;2022-08-23T12:46:52;42.60;37.70
52743;DHT22;55583;53.012;6.556;2022-08-23T12:49:38;41.70;38.60
52743;DHT22;55583;53.012;6.556;2022-08-23T12:52:07;41.10;39.80
52743;DHT22;55583;53.012;6.556;2022-08-23T12:57:07;40.70;39.40
52743;DHT22;55583;53.012;6.556;2022-08-23T13:02:30;39.60;40.40
52743;DHT22;55583;53.012;6.556;2022-08-23T13:05:03;39.30;40.90
52743;DHT22;55583;53.012;6.556;2022-08-23T13:07:30;38.80;39.90
52743;DHT22;55583;53.012;6.556;2022-08-23T13:09:57;38.50;40.00
52743;DHT22;55583;53.012;6.556;2022-08-23T13:12:23;38.40;41.50
52743;DHT22;55583;53.012;6.556;2022-08-23T13:14:51;38.40;40.10
52743;DHT22;55583;53.012;6.556;2022-08-23T13:20:22;38.20;40.40
52743;DHT22;55583;53.012;6.556;2022-08-23T13:23:06;38.20;41.10
52743;DHT22;55583;53.012;6.556;2022-08-23T13:25:38;38.00;41.20
52743;DHT22;55583;53.012;6.556;2022-08-23T13:28:23;37.60;41.30
52743;DHT22;55583;53.012;6.556;2022-08-23T13:31:04;37.50;41.20
52743;DHT22;55583;53.012;6.556;2022-08-23T13:33:30;37.60;42.40
52743;DHT22;55583;53.012;6.556;2022-08-23T13:36:15;38.00;42.10
52743;DHT22;55583;53.012;6.556;2022-08-23T13:38:44;38.40;42.20
52743;DHT22;55583;53.012;6.556;2022-08-23T13:41:25;38.50;41.80
52743;DHT22;55583;53.012;6.556;2022-08-23T13:43:53;38.50;41.60
52743;DHT22;55583;53.012;6.556;2022-08-23T13:46:22;38.70;41.80
52743;DHT22;55583;53.012;6.556;2022-08-23T13:48:53;38.90;40.50
52743;DHT22;55583;53.012;6.556;2022-08-23T13:54:00;38.80;41.10
52743;DHT22;55583;53.012;6.556;2022-08-23T13:56:27;38.90;41.40
52743;DHT22;55583;53.012;6.556;2022-08-23T13:59:03;39.20;40.20
52743;DHT22;55583;53.012;6.556;2022-08-23T14:01:30;39.60;40.60
52743;DHT22;55583;53.012;6.556;2022-08-23T14:03:55;40.00;40.30
52743;DHT22;55583;53.012;6.556;2022-08-23T14:06:21;39.80;39.60
52743;DHT22;55583;53.012;6.556;2022-08-23T14:08:48;39.60;39.50
52743;DHT22;55583;53.012;6.556;2022-08-23T14:11:14;39.40;40.00
52743;DHT22;55583;53.012;6.556;2022-08-23T14:13:42;39.00;39.70
52743;DHT22;55583;53.012;6.556;2022-08-23T14:16:12;38.80;40.30
52743;DHT22;55583;53.012;6.556;2022-08-23T14:18:38;38.50;39.80
52743;DHT22;55583;53.012;6.556;2022-08-23T14:21:04;38.20;40.40
52743;DHT22;55583;53.012;6.556;2022-08-23T14:23:29;37.80;40.90
52743;DHT22;55583;53.012;6.556;2022-08-23T14:25:56;37.50;41.50
52743;DHT22;55583;53.012;6.556;2022-08-23T14:28:26;37.50;41.10
52743;DHT22;55583;53.012;6.556;2022-08-23T14:30:54;37.40;41.50
52743;DHT22;55583;53.012;6.556;2022-08-23T14:33:20;37.10;41.50
52743;DHT22;55583;53.012;6.556;2022-08-23T14:35:47;37.00;42.30
52743;DHT22;55583;53.012;6.556;2022-08-23T14:38:13;36.90;42.00
52743;DHT22;55583;53.012;6.556;2022-08-23T14:40:42;36.90;42.00
52743;DHT22;55583;53.012;6.556;2022-08-23T14:43:11;37.00;42.30
52743;DHT22;55583;53.012;6.556;2022-08-23T14:45:37;37.30;42.10
52743;DHT22;55583;53.012;6.556;2022-08-23T14:48:04;37.50;42.10
52743;DHT22;55583;53.012;6.556;2022-08-23T14:50:29;37.70;41.70
52743;DHT22;55583;53.012;6.556;2022-08-23T14:52:55;37.70;41.60
52743;DHT22;55583;53.012;6.556;2022-08-23T14:55:21;37.50;41.40
52743;DHT22;55583;53.012;6.556;2022-08-23T14:57:46;37.50;41.90
52743;DHT22;55583;53.012;6.556;2022-08-23T15:00:13;37.20;42.00
52743;DHT22;55583;53.012;6.556;2022-08-23T15:02:46;36.90;42.20
52743;DHT22;55583;53.012;6.556;2022-08-23T15:05:13;36.50;42.00
52743;DHT22;55583;53.012;6.556;2022-08-23T15:07:39;36.00;42.20
52743;DHT22;55583;53.012;6.556;2022-08-23T15:10:05;36.00;42.90
52743;DHT22;55583;53.012;6.556;2022-08-23T15:12:31;36.10;42.50
52743;DHT22;55583;53.012;6.556;2022-08-23T15:14:57;36.20;42.70
52743;DHT22;55583;53.012;6.556;2022-08-23T15:17:23;36.30;42.60
52743;DHT22;55583;53.012;6.556;2022-08-23T15:19:49;36.50;42.50
52743;DHT22;55583;53.012;6.556;2022-08-23T15:22:14;36.60;42.40
52743;DHT22;55583;53.012;6.556;2022-08-23T15:24:40;36.80;42.40
52743;DHT22;55583;53.012;6.556;2022-08-23T15:27:06;36.80;41.90
52743;DHT22;55583;53.012;6.556;2022-08-23T15:29:31;36.80;42.70
52743;DHT22;55583;53.012;6.556;2022-08-23T15:31:57;36.90;42.80
52743;DHT22;55583;53.012;6.556;2022-08-23T15:34:23;36.90;43.60
52743;DHT22;55583;53.012;6.556;2022-08-23T15:36:49;36.70;42.60
52743;DHT22;55583;53.012;6.556;2022-08-23T15:39:15;36.50;43.30
52743;DHT22;55583;53.012;6.556;2022-08-23T15:41:40;36.50;43.40
52743;DHT22;55583;53.012;6.556;2022-08-23T15:44:06;36.40;43.50
52743;DHT22;55583;53.012;6.556;2022-08-23T15:46:32;36.30;44.10
52743;DHT22;55583;53.012;6.556;2022-08-23T15:49:10;36.20;44.40
52743;DHT22;55583;53.012;6.556;2022-08-23T15:51:37;36.10;44.10
52743;DHT22;55583;53.012;6.556;2022-08-23T15:54:03;36.00;43.50
52743;DHT22;55583;53.012;6.556;2022-08-23T15:56:33;35.90;43.70
52743;DHT22;55583;53.012;6.556;2022-08-23T15:58:59;35.60;43.40
52743;DHT22;55583;53.012;6.556;2022-08-23T16:01:25;35.30;44.50
52743;DHT22;55583;53.012;6.556;2022-08-23T16:03:53;35.00;45.10
52743;DHT22;55583;53.012;6.556;2022-08-23T16:06:19;34.60;44.70
52743;DHT22;55583;53.012;6.556;2022-08-23T16:08:49;34.20;45.40
52743;DHT22;55583;53.012;6.556;2022-08-23T16:11:16;33.90;45.70
52743;DHT22;55583;53.012;6.556;2022-08-23T16:13:44;33.60;46.40
52743;DHT22;55583;53.012;6.556;2022-08-23T16:16:24;33.30;47.50
52743;DHT22;55583;53.012;6.556;2022-08-23T16:18:51;33.10;47.90
52743;DHT22;55583;53.012;6.556;2022-08-23T16:21:19;32.90;47.30
52743;DHT22;55583;53.012;6.556;2022-08-23T16:23:45;32.80;47.30
52743;DHT22;55583;53.012;6.556;2022-08-23T16:26:17;32.70;47.00
52743;DHT22;55583;53.012;6.556;2022-08-23T16:28:44;32.60;47.40
52743;DHT22;55583;53.012;6.556;2022-08-23T16:31:10;32.50;47.50
52743;DHT22;55583;53.012;6.556;2022-08-23T16:33:37;32.50;47.50
52743;DHT22;55583;53.012;6.556;2022-08-23T16:36:03;32.40;47.50
52743;DHT22;55583;53.012;6.556;2022-08-23T16:38:29;32.30;48.60
52743;DHT22;55583;53.012;6.556;2022-08-23T16:40:55;32.20;47.80
52743;DHT22;55583;53.012;6.556;2022-08-23T16:43:21;32.10;48.60
52743;DHT22;55583;53.012;6.556;2022-08-23T16:45:46;31.90;49.50
52743;DHT22;55583;53.012;6.556;2022-08-23T16:48:12;31.80;50.10
52743;DHT22;55583;53.012;6.556;2022-08-23T16:50:37;31.70;50.50
52743;DHT22;55583;53.012;6.556;2022-08-23T16:53:03;31.50;49.70
52743;DHT22;55583;53.012;6.556;2022-08-23T16:55:29;31.30;50.00
52743;DHT22;55583;53.012;6.556;2022-08-23T16:57:55;31.20;50.20
52743;DHT22;55583;53.012;6.556;2022-08-23T17:00:21;31.10;51.40
52743;DHT22;55583;53.012;6.556;2022-08-23T17:02:47;30.90;50.90
52743;DHT22;55583;53.012;6.556;2022-08-23T17:05:15;30.70;51.50
52743;DHT22;55583;53.012;6.556;2022-08-23T17:07:41;30.60;51.90
52743;DHT22;55583;53.012;6.556;2022-08-23T17:10:08;30.40;51.50
52743;DHT22;55583;53.012;6.556;2022-08-23T17:12:39;30.40;51.90